createdAt,value
2022-11-25T00:01:55.080Z,9.80
2022-11-25T00:04:25.515Z,3.17
2022-11-25T00:06:53.468Z,4.53
2022-11-25T00:09:21.442Z,4.85
2022-11-25T00:11:51.960Z,13.85
2022-11-25T00:14:20.032Z,7.95
2022-11-25T00:16:48.980Z,3.65
2022-11-25T00:19:22.693Z,11.98
2022-11-25T00:21:50.404Z,6.80
2022-11-25T00:24:18.665Z,5.55
2022-11-25T00:26:47.742Z,3.75
2022-11-25T00:29:15.857Z,3.30
2022-11-25T00:31:43.983Z,3.17
2022-11-25T00:34:15.850Z,3.85
2022-11-25T00:36:44.204Z,3.35
2022-11-25T00:39:21.671Z,4.13
2022-11-25T00:42:07.964Z,5.72
2022-11-25T00:44:36.457Z,4.00
2022-11-25T00:47:13.043Z,2.83
2022-11-25T00:49:45.324Z,3.83
2022-11-25T00:52:17.925Z,4.45
2022-11-25T00:54:48.789Z,3.15
2022-11-25T00:57:18.301Z,3.83
2022-11-25T00:59:48.026Z,4.25
2022-11-25T01:02:17.135Z,2.42
2022-11-25T01:04:45.518Z,3.40
2022-11-25T01:07:17.027Z,5.05
2022-11-25T01:09:44.964Z,7.88
2022-11-25T01:12:12.875Z,3.05
2022-11-25T01:14:40.888Z,3.63
2022-11-25T01:17:13.120Z,3.08
2022-11-25T01:19:42.123Z,3.08
2022-11-25T01:22:10.267Z,3.33
2022-11-25T01:24:38.469Z,5.32
2022-11-25T01:27:06.513Z,4.95
2022-11-25T01:29:34.431Z,3.85
2022-11-25T01:32:02.275Z,2.55
2022-11-25T01:34:32.282Z,3.75
2022-11-25T01:37:00.073Z,1.90
2022-11-25T01:39:32.597Z,3.95
2022-11-25T01:42:02.269Z,4.13
2022-11-25T01:44:32.270Z,3.05
2022-11-25T01:47:17.376Z,3.17
2022-11-25T01:49:52.424Z,2.83
2022-11-25T01:52:21.766Z,3.05
2022-11-25T01:55:26.982Z,2.38
2022-11-25T01:58:00.876Z,3.43
2022-11-25T02:00:28.849Z,2.60
2022-11-25T02:02:57.203Z,3.22
2022-11-25T02:05:50.176Z,3.63
2022-11-25T02:08:18.188Z,2.53
2022-11-25T02:10:45.963Z,3.15
2022-11-25T02:13:13.914Z,3.47
2022-11-25T02:15:41.809Z,3.95
2022-11-25T02:18:09.950Z,5.90
2022-11-25T02:20:41.041Z,3.03
2022-11-25T02:23:33.581Z,2.63
2022-11-25T02:26:01.705Z,2.65
2022-11-25T02:28:31.554Z,2.30
2022-11-25T02:30:59.987Z,3.05
2022-11-25T02:33:28.252Z,2.35
2022-11-25T02:36:11.038Z,2.17
2022-11-25T02:38:44.693Z,2.42
2022-11-25T02:41:23.210Z,3.35
2022-11-25T02:43:56.737Z,2.38
2022-11-25T02:46:27.137Z,2.47
2022-11-25T02:49:12.733Z,2.08
2022-11-25T02:51:45.112Z,2.03
2022-11-25T02:54:15.794Z,1.70
2022-11-25T02:56:44.327Z,2.70
2022-11-25T02:59:12.384Z,2.25
2022-11-25T03:01:40.801Z,3.60
2022-11-25T03:04:10.886Z,2.72
2022-11-25T03:06:38.868Z,1.65
2022-11-25T03:09:08.012Z,2.28
2022-11-25T03:11:57.818Z,2.97
2022-11-25T03:14:25.956Z,3.35
2022-11-25T03:16:53.883Z,2.42
2022-11-25T03:19:21.641Z,2.22
2022-11-25T03:21:49.383Z,2.75
2022-11-25T03:24:17.322Z,1.85
2022-11-25T03:26:48.273Z,2.22
2022-11-25T03:29:16.482Z,2.78
2022-11-25T03:31:44.402Z,4.10
2022-11-25T03:34:13.334Z,2.60
2022-11-25T03:36:41.821Z,2.28
2022-11-25T03:39:10.626Z,3.17
2022-11-25T03:41:39.154Z,2.47
2022-11-25T03:44:07.227Z,1.88
2022-11-25T03:46:36.503Z,2.67
2022-11-25T03:49:07.130Z,2.58
2022-11-25T03:51:36.265Z,3.03
2022-11-25T03:54:04.265Z,4.35
2022-11-25T03:56:46.010Z,2.88
2022-11-25T03:59:13.930Z,2.30
2022-11-25T04:01:44.408Z,1.92
2022-11-25T04:04:12.816Z,2.80
2022-11-25T04:06:40.864Z,3.25
2022-11-25T04:09:10.201Z,2.58
2022-11-25T04:11:56.731Z,2.00
2022-11-25T04:14:26.620Z,1.83
2022-11-25T04:16:54.652Z,2.28
2022-11-25T04:19:22.724Z,1.83
2022-11-25T04:21:52.451Z,2.50
2022-11-25T04:24:21.532Z,2.05
2022-11-25T04:26:49.540Z,1.92
2022-11-25T04:29:17.493Z,3.45
2022-11-25T04:31:45.521Z,3.58
2022-11-25T04:34:13.482Z,2.90
2022-11-25T04:36:41.696Z,2.00
2022-11-25T04:39:09.294Z,4.70
2022-11-25T04:41:38.587Z,2.13
2022-11-25T04:44:06.500Z,3.38
2022-11-25T04:46:41.696Z,2.10
2022-11-25T04:49:10.304Z,3.97
2022-11-25T04:51:39.284Z,2.10
2022-11-25T04:54:08.028Z,4.95
2022-11-25T04:56:37.349Z,2.75
2022-11-25T04:59:25.072Z,2.00
2022-11-25T05:01:54.486Z,2.10
2022-11-25T05:04:33.283Z,2.13
2022-11-25T05:07:01.527Z,2.65
2022-11-25T05:09:29.861Z,2.92
2022-11-25T05:12:33.107Z,2.78
2022-11-25T05:15:05.102Z,3.47
2022-11-25T05:17:35.538Z,1.95
2022-11-25T05:20:04.958Z,2.25
2022-11-25T05:22:35.712Z,4.03
2022-11-25T05:25:06.268Z,1.83
2022-11-25T05:27:38.528Z,2.22
2022-11-25T05:30:11.485Z,2.35
2022-11-25T05:32:40.890Z,2.03
2022-11-25T05:35:11.313Z,1.92
2022-11-25T05:37:41.135Z,3.00
2022-11-25T05:40:10.192Z,2.28
2022-11-25T05:43:03.140Z,3.47
2022-11-25T05:45:33.042Z,2.50
2022-11-25T05:48:01.013Z,3.20
2022-11-25T05:50:30.088Z,11.75
2022-11-25T05:53:05.677Z,9.20
2022-11-25T05:55:35.932Z,7.80
2022-11-25T05:58:07.097Z,9.35
2022-11-25T06:00:36.057Z,13.10
2022-11-25T06:03:09.401Z,11.55
2022-11-25T06:05:37.532Z,14.73
2022-11-25T06:08:05.561Z,16.30
2022-11-25T06:10:33.387Z,26.05
2022-11-25T06:13:01.506Z,12.38
2022-11-25T06:15:29.607Z,20.85
2022-11-25T06:17:59.275Z,19.98
2022-11-25T06:20:29.282Z,21.20
2022-11-25T06:22:58.917Z,16.67
2022-11-25T06:25:35.778Z,21.38
2022-11-25T06:28:19.114Z,25.02
2022-11-25T06:30:50.235Z,26.30
2022-11-25T06:33:25.380Z,22.80
2022-11-25T06:35:53.443Z,24.20
2022-11-25T06:38:21.134Z,17.42
2022-11-25T06:40:49.044Z,25.23
2022-11-25T06:43:16.787Z,16.73
2022-11-25T06:45:44.570Z,15.73
2022-11-25T06:48:12.260Z,17.98
2022-11-25T06:50:40.026Z,12.40
2022-11-25T06:53:07.690Z,29.10
2022-11-25T06:55:35.447Z,17.50
2022-11-25T06:58:28.263Z,14.40
2022-11-25T07:00:51.629Z,17.98
2022-11-25T07:03:19.451Z,18.75
2022-11-25T07:05:47.264Z,15.50
2022-11-25T07:08:15.112Z,16.88
2022-11-25T07:10:43.017Z,12.82
2022-11-25T07:13:10.896Z,14.80
2022-11-25T07:15:39.017Z,16.30
2022-11-25T07:18:07.209Z,13.07
2022-11-25T07:20:35.098Z,15.30
2022-11-25T07:23:03.319Z,12.60
2022-11-25T07:25:31.491Z,11.30
2022-11-25T07:28:00.083Z,14.20
2022-11-25T07:33:16.243Z,15.65
2022-11-25T07:35:44.539Z,15.50
2022-11-25T07:38:12.603Z,24.55
2022-11-25T07:40:40.484Z,16.40
2022-11-25T07:43:08.234Z,22.98
2022-11-25T07:45:36.159Z,32.30
2022-11-25T07:48:09.594Z,24.95
2022-11-25T07:50:38.706Z,14.75
2022-11-25T07:53:07.785Z,27.73
2022-11-25T07:55:35.600Z,25.00
2022-11-25T07:58:03.438Z,28.73
2022-11-25T08:00:31.229Z,35.30
2022-11-25T08:02:59.082Z,24.98
2022-11-25T08:05:26.786Z,33.83
2022-11-25T08:07:54.813Z,24.35
2022-11-25T08:10:23.626Z,27.98
2022-11-25T08:12:51.821Z,27.17
2022-11-25T08:15:19.813Z,27.90
2022-11-25T08:17:47.768Z,26.92
2022-11-25T08:20:15.638Z,32.00
2022-11-25T08:22:43.775Z,35.88
2022-11-25T08:25:12.242Z,26.23
2022-11-25T08:27:41.484Z,25.20
2022-11-25T08:30:09.967Z,17.00
2022-11-25T08:32:39.331Z,20.48
2022-11-25T08:35:07.913Z,24.58
2022-11-25T08:37:36.378Z,23.58
2022-11-25T08:40:04.830Z,19.85
2022-11-25T08:42:32.650Z,16.73
2022-11-25T08:45:01.977Z,18.60
2022-11-25T08:47:29.813Z,18.55
2022-11-25T08:49:57.955Z,17.67
2022-11-25T08:52:25.808Z,16.55
2022-11-25T08:54:53.869Z,22.08
2022-11-25T08:57:21.779Z,17.48
2022-11-25T08:59:49.900Z,16.88
2022-11-25T09:02:19.134Z,19.13
2022-11-25T09:04:47.453Z,26.88
2022-11-25T09:07:15.590Z,19.40
2022-11-25T09:09:43.794Z,21.20
2022-11-25T09:12:11.633Z,14.25
2022-11-25T09:14:40.979Z,18.55
2022-11-25T09:17:12.654Z,26.08
2022-11-25T09:19:40.677Z,13.75
2022-11-25T09:22:09.030Z,17.17
2022-11-25T09:24:37.145Z,22.05
2022-11-25T09:27:05.078Z,17.70
2022-11-25T09:29:32.987Z,19.73
2022-11-25T09:32:01.202Z,22.88
2022-11-25T09:34:29.382Z,17.63
2022-11-25T09:37:00.083Z,26.63
2022-11-25T09:39:30.087Z,20.60
2022-11-25T09:42:35.034Z,21.20
2022-11-25T09:45:21.500Z,24.17
2022-11-25T09:48:30.624Z,21.52
2022-11-25T09:51:22.153Z,16.33
2022-11-25T09:54:08.879Z,22.58
2022-11-25T09:56:43.101Z,21.35
2022-11-25T09:59:23.533Z,19.23
2022-11-25T10:02:03.599Z,16.13
2022-11-25T10:04:47.734Z,20.55
2022-11-25T10:07:39.034Z,20.10
2022-11-25T10:10:12.442Z,23.95
2022-11-25T10:12:41.149Z,18.40
2022-11-25T10:15:19.665Z,16.88
2022-11-25T10:17:53.652Z,13.70
2022-11-25T10:20:26.954Z,9.40
2022-11-25T10:23:35.256Z,18.08
2022-11-25T10:26:17.418Z,20.27
2022-11-25T10:29:18.484Z,19.45
2022-11-25T10:31:46.360Z,13.15
2022-11-25T10:34:42.994Z,19.23
2022-11-25T10:37:15.040Z,14.30
2022-11-25T10:39:43.112Z,12.52
2022-11-25T10:42:21.821Z,13.32
2022-11-25T10:44:50.502Z,13.80
2022-11-25T10:48:10.268Z,14.18
2022-11-25T10:51:04.058Z,13.98
2022-11-25T10:53:31.998Z,12.13
2022-11-25T10:56:01.439Z,11.60
2022-11-25T10:58:33.479Z,16.58
2022-11-25T11:01:26.126Z,14.32
2022-11-25T11:04:03.621Z,7.78
2022-11-25T11:06:41.063Z,11.65
2022-11-25T11:09:31.915Z,16.17
2022-11-25T11:12:15.378Z,13.60
2022-11-25T11:14:43.260Z,10.68
2022-11-25T11:17:36.083Z,10.65
2022-11-25T11:20:07.622Z,9.98
2022-11-25T11:22:36.797Z,8.85
2022-11-25T11:25:28.723Z,12.13
2022-11-25T11:27:56.592Z,8.70
2022-11-25T11:30:27.772Z,6.05
2022-11-25T11:33:07.713Z,9.23
2022-11-25T11:35:57.089Z,6.43
2022-11-25T11:38:38.357Z,12.30
2022-11-25T11:41:12.123Z,6.40
2022-11-25T11:44:28.115Z,7.78
2022-11-25T11:47:14.847Z,4.82
2022-11-25T11:50:19.996Z,11.23
2022-11-25T11:53:11.480Z,7.63
2022-11-25T11:56:34.365Z,12.52
2022-11-25T11:59:00.278Z,13.30
2022-11-25T12:01:51.920Z,14.48
2022-11-25T12:04:42.323Z,16.20
2022-11-25T12:07:18.700Z,10.57
2022-11-25T12:09:59.101Z,11.63
2022-11-25T12:12:53.794Z,8.23
2022-11-25T12:15:50.847Z,10.15
2022-11-25T12:18:31.922Z,6.60
2022-11-25T12:21:07.373Z,15.82
2022-11-25T12:23:46.246Z,10.30
2022-11-25T12:26:50.272Z,8.80
2022-11-25T12:29:43.052Z,9.60
2022-11-25T12:32:22.977Z,12.80
2022-11-25T12:35:28.559Z,12.52
2022-11-25T12:38:20.580Z,5.97
2022-11-25T12:41:06.500Z,13.80
2022-11-25T12:43:49.954Z,8.40
2022-11-25T12:46:30.885Z,12.80
2022-11-25T12:48:59.754Z,5.97
2022-11-25T12:51:30.695Z,5.95
2022-11-25T12:54:28.897Z,9.73
2022-11-25T12:56:59.652Z,13.15
2022-11-25T13:00:17.490Z,8.45
2022-11-25T13:05:41.827Z,17.20
2022-11-25T13:08:35.544Z,14.55
2022-11-25T13:11:33.302Z,21.02
2022-11-25T13:14:18.298Z,16.88
2022-11-25T13:16:48.737Z,8.07
2022-11-25T13:19:19.477Z,14.57
2022-11-25T13:22:06.608Z,14.23
2022-11-25T13:24:43.450Z,10.95
2022-11-25T13:27:30.280Z,9.93
2022-11-25T13:29:59.472Z,13.02
2022-11-25T13:32:39.179Z,13.43
2022-11-25T13:35:25.223Z,9.10
2022-11-25T13:37:53.361Z,12.73
2022-11-25T13:40:25.762Z,10.80
2022-11-25T13:42:55.699Z,18.48
2022-11-25T13:45:31.925Z,13.55
2022-11-25T13:48:37.687Z,12.23
2022-11-25T13:51:19.444Z,9.38
2022-11-25T13:53:59.810Z,3.65
2022-11-25T13:56:36.567Z,13.73
2022-11-25T13:59:17.358Z,13.98
2022-11-25T14:01:48.252Z,13.43
2022-11-25T14:04:16.991Z,11.60
2022-11-25T14:06:51.198Z,16.30
2022-11-25T14:09:35.741Z,15.68
2022-11-25T14:12:25.287Z,15.00
2022-11-25T14:15:04.956Z,21.40
2022-11-25T14:18:03.580Z,14.77
2022-11-25T14:20:54.965Z,11.82
2022-11-25T14:23:34.630Z,12.35
2022-11-25T14:26:34.033Z,12.43
2022-11-25T14:29:22.648Z,10.07
2022-11-25T14:31:58.784Z,9.77
2022-11-25T14:34:34.137Z,9.90
2022-11-25T14:37:15.510Z,12.60
2022-11-25T14:40:08.571Z,11.10
2022-11-25T14:42:38.007Z,15.73
2022-11-25T14:45:25.939Z,32.08
2022-11-25T14:47:53.773Z,23.35
2022-11-25T14:50:40.645Z,19.67
2022-11-25T14:53:14.383Z,11.73
2022-11-25T14:55:42.320Z,14.05
2022-11-25T14:58:13.061Z,12.15
2022-11-25T15:01:02.339Z,19.33
2022-11-25T15:03:30.384Z,8.02
2022-11-25T15:06:03.532Z,9.82
2022-11-25T15:08:42.843Z,15.65
2022-11-25T15:11:19.155Z,11.15
2022-11-25T15:14:03.705Z,28.65
2022-11-25T15:16:39.889Z,10.10
2022-11-25T15:19:19.335Z,10.90
2022-11-25T15:22:21.276Z,15.63
2022-11-25T15:24:48.944Z,18.92
2022-11-25T15:27:29.860Z,19.92
2022-11-25T15:29:59.297Z,17.48
2022-11-25T15:32:29.754Z,16.48
2022-11-25T15:35:00.396Z,10.30
2022-11-25T15:37:29.121Z,11.45
2022-11-25T15:40:30.077Z,18.30
2022-11-25T15:43:18.955Z,10.45
2022-11-25T15:45:48.730Z,18.40
2022-11-25T15:48:25.512Z,15.88
2022-11-25T15:51:02.190Z,18.40
2022-11-25T15:53:33.497Z,8.27
2022-11-25T15:56:02.209Z,10.48
2022-11-25T15:58:30.333Z,7.13
2022-11-25T16:01:18.343Z,7.90
2022-11-25T16:03:47.568Z,7.30
2022-11-25T16:06:24.181Z,6.22
2022-11-25T16:09:00.297Z,8.32
2022-11-25T16:11:33.633Z,9.48
2022-11-25T16:14:27.090Z,6.43
2022-11-25T16:17:15.159Z,12.25
2022-11-25T16:19:44.962Z,5.90
2022-11-25T16:22:17.645Z,10.10
2022-11-25T16:24:57.273Z,10.20
2022-11-25T16:27:29.650Z,12.10
2022-11-25T16:30:06.806Z,10.60
2022-11-25T16:32:34.977Z,11.13
2022-11-25T16:35:19.468Z,10.85
2022-11-25T16:37:49.499Z,11.68
2022-11-25T16:40:19.001Z,12.50
2022-11-25T16:42:50.798Z,11.52
2022-11-25T16:45:25.630Z,12.18
2022-11-25T16:47:53.466Z,9.45
2022-11-25T16:50:22.216Z,17.00
2022-11-25T16:52:50.292Z,9.93
2022-11-25T16:55:18.817Z,30.75
2022-11-25T16:57:46.846Z,32.88
2022-11-25T17:00:17.338Z,32.80
2022-11-25T17:02:46.168Z,30.65
2022-11-25T17:05:20.028Z,41.45
2022-11-25T17:07:50.464Z,41.50
2022-11-25T17:10:19.425Z,39.58
2022-11-25T17:12:48.294Z,38.78
2022-11-25T17:15:19.799Z,37.45
2022-11-25T17:17:48.631Z,34.47
2022-11-25T17:20:18.122Z,49.58
2022-11-25T17:22:45.940Z,43.63
2022-11-25T17:25:14.173Z,33.58
2022-11-25T17:27:42.567Z,38.97
2022-11-25T17:30:24.582Z,44.63
2022-11-25T17:32:57.845Z,38.58
2022-11-25T17:35:25.793Z,44.85
2022-11-25T17:37:53.796Z,39.47
2022-11-25T17:40:21.716Z,37.38
2022-11-25T17:42:50.165Z,40.10
2022-11-25T17:45:20.831Z,31.98
2022-11-25T17:47:48.912Z,41.00
2022-11-25T17:50:28.160Z,38.03
2022-11-25T17:52:55.916Z,32.28
2022-11-25T17:55:23.821Z,33.22
2022-11-25T17:57:51.751Z,31.35
2022-11-25T18:00:23.372Z,30.05
2022-11-25T18:02:51.691Z,29.70
2022-11-25T18:05:25.269Z,31.90
2022-11-25T18:07:53.221Z,28.83
2022-11-25T18:10:24.815Z,23.42
2022-11-25T18:12:56.637Z,28.33
2022-11-25T18:15:30.612Z,24.45
2022-11-25T18:18:04.882Z,22.20
2022-11-25T18:20:33.863Z,25.65
2022-11-25T18:23:02.050Z,26.58
2022-11-25T18:25:32.370Z,24.20
2022-11-25T18:28:01.171Z,26.17
2022-11-25T18:30:36.568Z,22.50
2022-11-25T18:33:06.517Z,31.50
2022-11-25T18:35:36.713Z,20.85
2022-11-25T18:38:05.104Z,15.88
2022-11-25T18:40:33.359Z,21.65
2022-11-25T18:43:02.592Z,22.55
2022-11-25T18:45:34.498Z,19.38
2022-11-25T18:48:02.854Z,22.75
2022-11-25T18:50:31.667Z,18.15
2022-11-25T18:52:59.614Z,14.68
2022-11-25T18:55:27.856Z,17.30
2022-11-25T18:57:55.666Z,14.73
2022-11-25T19:00:33.508Z,17.27
2022-11-25T19:03:01.752Z,16.27
2022-11-25T19:05:32.417Z,13.55
2022-11-25T19:08:00.523Z,12.20
2022-11-25T19:10:31.623Z,16.45
2022-11-25T19:13:02.723Z,14.60
2022-11-25T19:15:30.599Z,14.15
2022-11-25T19:18:03.191Z,15.63
2022-11-25T19:20:31.654Z,11.50
2022-11-25T19:23:01.447Z,12.52
2022-11-25T19:25:29.715Z,10.98
2022-11-25T19:28:01.371Z,11.75
2022-11-25T19:30:31.700Z,15.23
2022-11-25T19:33:01.599Z,13.80
2022-11-25T19:35:38.943Z,11.63
2022-11-25T19:38:20.831Z,15.93
2022-11-25T19:40:49.660Z,12.73
2022-11-25T19:43:18.047Z,15.73
2022-11-25T19:45:51.428Z,15.88
2022-11-25T19:48:20.383Z,12.68
2022-11-25T19:50:52.125Z,13.93
2022-11-25T19:53:21.932Z,11.20
2022-11-25T19:55:50.109Z,14.90
2022-11-25T19:58:22.248Z,17.88
2022-11-25T20:00:50.361Z,13.32
2022-11-25T20:03:23.493Z,12.82
2022-11-25T20:05:52.903Z,14.00
2022-11-25T20:08:23.920Z,8.05
2022-11-25T20:10:52.512Z,12.52
2022-11-25T20:13:23.808Z,10.88
2022-11-25T20:15:52.342Z,11.68
2022-11-25T20:18:24.241Z,13.15
2022-11-25T20:21:00.239Z,11.45
2022-11-25T20:23:44.325Z,16.20
2022-11-25T20:26:25.508Z,11.30
2022-11-25T20:28:53.801Z,9.85
2022-11-25T20:31:22.133Z,8.68
2022-11-25T20:33:50.513Z,10.50
2022-11-25T20:36:21.956Z,13.13
2022-11-25T20:38:54.883Z,17.65
2022-11-25T20:41:28.050Z,7.35
2022-11-25T20:43:57.288Z,14.77
2022-11-25T20:46:29.591Z,7.53
2022-11-25T20:49:03.519Z,7.13
2022-11-25T20:51:31.754Z,12.25
2022-11-25T20:54:03.667Z,10.98
2022-11-25T20:56:34.653Z,8.02
2022-11-25T20:59:02.627Z,4.97
2022-11-25T21:01:31.259Z,10.30
2022-11-25T21:03:59.146Z,7.60
2022-11-25T21:06:39.324Z,7.95
2022-11-25T21:09:21.175Z,5.15
2022-11-25T21:11:49.518Z,7.57
2022-11-25T21:14:18.779Z,5.63
2022-11-25T21:16:47.412Z,8.18
2022-11-25T21:19:15.439Z,9.93
2022-11-25T21:21:45.912Z,7.82
2022-11-25T21:24:40.849Z,9.27
2022-11-25T21:27:15.034Z,5.50
2022-11-25T21:29:46.711Z,6.95
2022-11-25T21:32:26.016Z,5.45
2022-11-25T21:34:54.215Z,4.32
2022-11-25T21:37:36.586Z,9.60
2022-11-25T21:40:09.267Z,29.48
2022-11-25T21:42:42.805Z,28.33
2022-11-25T21:45:16.063Z,37.05
2022-11-25T21:47:43.992Z,29.20
2022-11-25T21:50:17.186Z,21.17
2022-11-25T21:52:45.260Z,20.40
2022-11-25T21:55:14.797Z,21.33
2022-11-25T21:57:43.197Z,22.83
2022-11-25T22:00:29.491Z,24.02
2022-11-25T22:02:57.521Z,20.42
2022-11-25T22:05:28.139Z,16.55
2022-11-25T22:07:55.967Z,16.70
2022-11-25T22:10:23.988Z,15.98
2022-11-25T22:12:51.991Z,12.85
2022-11-25T22:15:22.363Z,15.13
2022-11-25T22:17:53.674Z,10.77
2022-11-25T22:20:34.106Z,13.45
2022-11-25T22:23:02.213Z,13.85
2022-11-25T22:25:31.125Z,11.52
2022-11-25T22:27:59.051Z,11.15
2022-11-25T22:30:26.781Z,9.77
2022-11-25T22:33:21.663Z,13.20
2022-11-25T22:35:50.531Z,11.40
2022-11-25T22:38:19.306Z,16.95
2022-11-25T22:40:56.704Z,10.32
2022-11-25T22:43:27.353Z,12.02
2022-11-25T22:45:55.878Z,15.05
2022-11-25T22:48:32.138Z,18.88
2022-11-25T22:51:00.356Z,11.57
2022-11-25T22:53:28.671Z,13.98
2022-11-25T22:55:58.414Z,18.33
2022-11-25T22:58:27.390Z,14.57
2022-11-25T23:00:56.418Z,13.77
2022-11-25T23:03:34.370Z,12.48
2022-11-25T23:06:03.875Z,8.63
2022-11-25T23:08:31.980Z,8.38
2022-11-25T23:11:00.051Z,9.90
2022-11-25T23:13:28.072Z,11.20
2022-11-25T23:16:02.662Z,7.43
2022-11-25T23:18:38.755Z,10.18
2022-11-25T23:21:10.126Z,8.82
2022-11-25T23:23:37.892Z,11.10
2022-11-25T23:26:09.838Z,12.85
2022-11-25T23:28:37.658Z,15.05
2022-11-25T23:31:06.025Z,13.55
2022-11-25T23:33:39.449Z,11.88
2022-11-25T23:36:28.842Z,11.77
2022-11-25T23:38:58.774Z,10.63
2022-11-25T23:41:29.512Z,8.75
2022-11-25T23:43:58.746Z,9.57
2022-11-25T23:46:30.226Z,10.38
2022-11-25T23:49:00.940Z,8.05
2022-11-25T23:51:29.605Z,7.85
2022-11-25T23:53:58.200Z,11.02
2022-11-25T23:56:27.458Z,5.63
2022-11-25T23:58:55.200Z,9.77
